createdAt,value
2022-09-21T00:02:20.740Z,7.13
2022-09-21T00:05:01.508Z,9.93
2022-09-21T00:07:55.492Z,5.43
2022-09-21T00:10:43.510Z,4.90
2022-09-21T00:13:19.760Z,6.80
2022-09-21T00:16:07.695Z,4.78
2022-09-21T00:18:48.620Z,3.72
2022-09-21T00:21:35.486Z,4.07
2022-09-21T00:24:29.482Z,4.22
2022-09-21T00:27:16.496Z,4.47
2022-09-21T00:29:57.501Z,2.10
2022-09-21T00:32:52.492Z,4.50
2022-09-21T00:35:40.494Z,4.20
2022-09-21T00:38:14.699Z,4.18
2022-09-21T00:41:01.487Z,4.18
2022-09-21T00:43:35.599Z,4.90
2022-09-21T00:46:29.518Z,4.07
2022-09-21T00:49:04.548Z,4.78
2022-09-21T00:51:52.511Z,2.97
2022-09-21T00:54:33.639Z,7.03
2022-09-21T00:57:22.513Z,2.47
2022-09-21T00:59:58.546Z,6.30
2022-09-21T01:02:46.513Z,4.33
2022-09-21T01:05:20.608Z,6.85
2022-09-21T01:08:08.486Z,3.83
2022-09-21T01:11:06.514Z,5.28
2022-09-21T01:14:18.509Z,5.15
2022-09-21T01:17:29.506Z,3.47
2022-09-21T01:20:11.239Z,7.53
2022-09-21T01:23:07.519Z,3.20
2022-09-21T01:25:48.603Z,3.80
2022-09-21T01:28:50.528Z,3.28
2022-09-21T01:31:34.629Z,3.20
2022-09-21T01:34:22.504Z,3.75
2022-09-21T01:37:11.522Z,3.88
2022-09-21T01:39:46.547Z,10.05
2022-09-21T01:42:34.532Z,7.28
2022-09-21T01:45:09.672Z,3.40
2022-09-21T01:47:57.524Z,5.53
2022-09-21T01:50:38.434Z,4.00
2022-09-21T01:53:32.527Z,5.03
2022-09-21T01:56:13.682Z,3.30
2022-09-21T01:59:20.530Z,3.85
2022-09-21T02:01:57.585Z,10.90
2022-09-21T02:07:20.507Z,5.50
2022-09-21T02:10:09.524Z,2.60
2022-09-21T02:12:43.473Z,4.82
2022-09-21T02:15:35.520Z,5.70
2022-09-21T02:18:25.532Z,7.10
2022-09-21T02:21:08.648Z,4.13
2022-09-21T02:24:06.523Z,8.93
2022-09-21T02:26:49.508Z,3.70
2022-09-21T02:30:03.545Z,6.40
2022-09-21T02:32:52.710Z,1.52
2022-09-21T02:35:57.535Z,6.47
2022-09-21T02:38:46.229Z,4.03
2022-09-21T02:41:37.530Z,3.13
2022-09-21T02:44:20.521Z,6.18
2022-09-21T02:47:22.524Z,3.60
2022-09-21T02:50:40.514Z,3.35
2022-09-21T02:53:16.664Z,6.38
2022-09-21T02:56:05.531Z,5.20
2022-09-21T02:58:43.681Z,7.28
2022-09-21T03:01:32.601Z,3.55
2022-09-21T03:04:06.595Z,2.75
2022-09-21T03:06:53.541Z,2.92
2022-09-21T03:09:27.666Z,5.13
2022-09-21T03:12:15.516Z,4.50
2022-09-21T03:14:57.553Z,4.07
2022-09-21T03:17:51.499Z,4.55
2022-09-21T03:20:42.534Z,5.55
2022-09-21T03:23:16.592Z,2.38
2022-09-21T03:26:03.540Z,3.00
2022-09-21T03:28:37.597Z,2.83
2022-09-21T03:31:24.582Z,5.00
2022-09-21T03:33:58.648Z,5.43
2022-09-21T03:36:46.532Z,3.60
2022-09-21T03:39:20.625Z,4.43
2022-09-21T03:42:08.551Z,4.85
2022-09-21T03:44:49.535Z,2.92
2022-09-21T03:47:43.535Z,2.35
2022-09-21T03:53:11.683Z,3.08
2022-09-21T03:55:52.516Z,4.18
2022-09-21T03:58:33.614Z,1.90
2022-09-21T04:01:13.596Z,3.13
2022-09-21T04:03:54.581Z,5.05
2022-09-21T04:06:34.552Z,4.80
2022-09-21T04:09:15.617Z,8.35
2022-09-21T04:11:55.552Z,4.07
2022-09-21T04:14:36.900Z,4.05
2022-09-21T04:17:18.538Z,9.57
2022-09-21T04:20:06.532Z,14.35
2022-09-21T04:22:46.526Z,7.85
2022-09-21T04:25:28.085Z,10.48
2022-09-21T04:28:08.526Z,8.23
2022-09-21T04:30:56.542Z,5.65
2022-09-21T04:33:30.978Z,6.50
2022-09-21T04:36:18.558Z,6.28
2022-09-21T04:38:52.501Z,6.18
2022-09-21T04:41:40.535Z,3.90
2022-09-21T04:44:14.507Z,3.47
2022-09-21T04:47:02.546Z,4.18
2022-09-21T04:49:36.568Z,9.23
2022-09-21T04:52:24.543Z,6.60
2022-09-21T04:54:58.563Z,8.23
2022-09-21T04:57:46.544Z,6.93
2022-09-21T05:00:26.540Z,7.28
2022-09-21T05:03:07.606Z,6.22
2022-09-21T05:05:53.568Z,6.03
2022-09-21T05:08:59.539Z,8.05
2022-09-21T05:11:40.564Z,6.10
2022-09-21T05:14:21.582Z,3.65
2022-09-21T05:17:01.551Z,3.25
2022-09-21T05:19:42.597Z,3.58
2022-09-21T05:22:23.539Z,3.95
2022-09-21T05:25:04.594Z,8.13
2022-09-21T05:27:51.525Z,3.40
2022-09-21T05:30:25.690Z,3.92
2022-09-21T05:33:13.546Z,4.95
2022-09-21T05:36:15.797Z,5.70
2022-09-21T05:39:03.559Z,2.28
2022-09-21T05:41:37.638Z,4.28
2022-09-21T05:44:25.558Z,4.95
2022-09-21T05:47:11.619Z,5.47
2022-09-21T05:50:10.547Z,9.50
2022-09-21T05:52:50.605Z,8.75
2022-09-21T05:55:48.584Z,3.08
2022-09-21T05:58:25.660Z,3.72
2022-09-21T06:01:31.595Z,5.03
2022-09-21T06:04:06.692Z,3.50
2022-09-21T06:06:53.545Z,4.70
2022-09-21T06:09:34.544Z,4.30
2022-09-21T06:12:28.550Z,6.93
2022-09-21T06:15:26.565Z,6.80
2022-09-21T06:18:17.989Z,9.27
2022-09-21T06:20:52.585Z,4.93
2022-09-21T06:23:40.548Z,7.10
2022-09-21T06:26:14.654Z,5.68
2022-09-21T06:29:02.576Z,3.10
2022-09-21T06:31:36.727Z,4.22
2022-09-21T06:34:24.572Z,6.50
2022-09-21T06:37:05.556Z,4.47
2022-09-21T06:39:59.572Z,4.30
2022-09-21T06:42:46.554Z,4.70
2022-09-21T06:45:20.615Z,2.30
2022-09-21T06:48:07.574Z,8.40
2022-09-21T06:50:41.632Z,7.60
2022-09-21T06:53:29.549Z,5.35
2022-09-21T06:56:10.651Z,5.07
2022-09-21T06:58:58.564Z,3.15
2022-09-21T07:01:39.700Z,8.45
2022-09-21T07:04:24.921Z,7.05
2022-09-21T07:07:05.715Z,6.20
2022-09-21T07:12:46.649Z,4.72
2022-09-21T07:15:27.542Z,4.75
2022-09-21T07:18:15.545Z,4.60
2022-09-21T07:20:56.571Z,4.63
2022-09-21T07:23:37.645Z,6.95
2022-09-21T07:26:19.546Z,11.23
2022-09-21T07:29:07.617Z,7.60
2022-09-21T07:31:45.008Z,5.35
2022-09-21T07:37:05.727Z,6.03
2022-09-21T07:39:53.585Z,4.47
2022-09-21T07:42:34.577Z,6.57
2022-09-21T07:45:15.646Z,5.57
2022-09-21T07:47:55.603Z,6.22
2022-09-21T07:50:36.712Z,4.90
2022-09-21T07:53:17.592Z,8.00
2022-09-21T07:55:58.641Z,5.03
2022-09-21T07:58:57.586Z,8.95
2022-09-21T08:01:38.786Z,3.25
2022-09-21T08:04:18.570Z,4.75
2022-09-21T08:06:59.649Z,7.22
2022-09-21T08:09:39.685Z,7.65
2022-09-21T08:12:20.778Z,6.30
2022-09-21T08:15:00.638Z,6.60
2022-09-21T08:17:48.568Z,8.55
2022-09-21T08:20:29.590Z,3.25
2022-09-21T08:23:18.578Z,7.00
2022-09-21T08:25:53.157Z,4.90
2022-09-21T08:28:42.584Z,3.22
2022-09-21T08:31:17.366Z,4.00
2022-09-21T08:34:05.591Z,8.45
2022-09-21T08:36:39.862Z,4.10
2022-09-21T08:39:27.589Z,4.40
2022-09-21T08:42:08.391Z,3.05
2022-09-21T08:44:56.592Z,4.93
2022-09-21T08:48:01.583Z,3.35
2022-09-21T08:50:54.579Z,2.15
2022-09-21T08:53:28.657Z,3.28
2022-09-21T08:56:22.564Z,0.60
2022-09-21T08:59:03.591Z,4.57
2022-09-21T09:02:06.675Z,3.53
2022-09-21T09:05:05.579Z,1.05
2022-09-21T09:07:40.376Z,2.47
2022-09-21T09:10:39.576Z,2.50
2022-09-21T09:13:13.669Z,1.38
2022-09-21T09:16:10.606Z,0.95
2022-09-21T09:18:58.666Z,5.85
2022-09-21T09:21:48.596Z,3.38
2022-09-21T09:24:28.672Z,3.47
2022-09-21T09:27:28.623Z,3.92
2022-09-21T09:30:10.643Z,1.38
2022-09-21T09:33:07.600Z,1.75
2022-09-21T09:35:53.575Z,2.65
2022-09-21T09:38:42.163Z,1.48
2022-09-21T09:41:53.595Z,1.60
2022-09-21T09:45:04.658Z,2.88
2022-09-21T09:47:58.590Z,2.28
2022-09-21T09:50:37.694Z,4.40
2022-09-21T09:53:28.603Z,1.58
2022-09-21T09:56:05.663Z,1.85
2022-09-21T09:59:04.597Z,1.80
2022-09-21T10:01:47.309Z,1.55
2022-09-21T10:04:34.667Z,2.15
2022-09-21T10:07:15.607Z,3.00
2022-09-21T10:10:09.585Z,1.15
2022-09-21T10:12:59.619Z,0.77
2022-09-21T10:15:33.784Z,2.70
2022-09-21T10:18:26.675Z,3.47
2022-09-21T10:21:13.579Z,2.05
2022-09-21T10:24:12.581Z,3.60
2022-09-21T10:27:07.568Z,1.98
2022-09-21T10:29:52.608Z,1.98
2022-09-21T10:32:34.116Z,2.05
2022-09-21T10:35:14.600Z,1.65
2022-09-21T10:37:55.688Z,1.23
2022-09-21T10:40:37.645Z,1.75
2022-09-21T10:43:42.650Z,1.95
2022-09-21T10:46:34.450Z,2.33
2022-09-21T10:49:29.614Z,1.38
2022-09-21T10:52:09.612Z,0.95
2022-09-21T10:55:11.614Z,2.47
2022-09-21T10:57:59.619Z,0.60
2022-09-21T11:00:43.610Z,3.30
2022-09-21T11:03:49.605Z,1.48
2022-09-21T11:06:38.598Z,2.80
2022-09-21T11:09:26.600Z,2.65
2022-09-21T11:12:29.605Z,1.23
2022-09-21T11:15:29.656Z,1.83
2022-09-21T11:18:21.708Z,5.27
2022-09-21T11:21:12.619Z,1.77
2022-09-21T11:24:10.698Z,2.85
2022-09-21T11:27:09.607Z,4.15
2022-09-21T11:30:24.700Z,2.90
2022-09-21T11:33:28.587Z,5.68
2022-09-21T11:36:21.610Z,4.57
2022-09-21T11:39:01.688Z,0.85
2022-09-21T11:41:48.634Z,5.50
2022-09-21T11:44:56.679Z,1.75
2022-09-21T11:48:02.629Z,4.47
2022-09-21T11:50:43.695Z,4.50
2022-09-21T11:53:26.614Z,4.90
2022-09-21T11:56:20.613Z,1.88
2022-09-21T11:59:19.616Z,3.25
2022-09-21T12:02:25.777Z,2.88
2022-09-21T12:05:20.288Z,1.77
2022-09-21T12:08:10.608Z,5.47
2022-09-21T12:10:47.936Z,4.25
2022-09-21T12:13:35.636Z,2.40
2022-09-21T12:16:24.261Z,5.10
2022-09-21T12:19:36.606Z,2.65
2022-09-21T12:22:14.803Z,2.83
2022-09-21T12:25:05.596Z,4.00
2022-09-21T12:27:44.693Z,2.08
2022-09-21T12:30:33.670Z,3.30
2022-09-21T12:33:12.805Z,1.77
2022-09-21T12:36:02.620Z,1.67
2022-09-21T12:39:00.615Z,1.73
2022-09-21T12:41:54.612Z,1.98
2022-09-21T12:44:59.609Z,1.30
2022-09-21T12:48:02.673Z,3.22
2022-09-21T12:50:51.623Z,2.60
2022-09-21T12:53:29.072Z,1.73
2022-09-21T12:56:18.634Z,5.35
2022-09-21T12:58:58.709Z,2.05
2022-09-21T13:01:57.111Z,5.55
2022-09-21T13:04:53.420Z,1.48
2022-09-21T13:07:39.625Z,2.38
2022-09-21T13:10:39.956Z,1.55
2022-09-21T13:13:32.759Z,1.15
2022-09-21T13:16:14.638Z,0.70
2022-09-21T13:19:16.616Z,2.97
2022-09-21T13:22:26.628Z,11.23
2022-09-21T13:25:18.747Z,3.08
2022-09-21T13:28:10.623Z,2.03
2022-09-21T13:30:44.673Z,5.43
2022-09-21T13:33:32.641Z,5.47
2022-09-21T13:36:11.688Z,2.72
2022-09-21T13:38:58.646Z,0.63
2022-09-21T13:41:59.000Z,1.55
2022-09-21T13:44:40.639Z,1.13
2022-09-21T13:47:15.699Z,1.98
2022-09-21T13:50:03.662Z,1.85
2022-09-21T13:52:52.029Z,1.10
2022-09-21T13:55:40.646Z,3.33
2022-09-21T13:58:33.761Z,2.97
2022-09-21T14:01:45.674Z,1.05
2022-09-21T14:04:27.772Z,2.53
2022-09-21T14:07:15.639Z,3.75
2022-09-21T14:10:08.997Z,3.53
2022-09-21T14:12:57.619Z,3.13
2022-09-21T14:15:31.708Z,2.47
2022-09-21T14:18:23.637Z,3.58
2022-09-21T14:21:23.626Z,4.18
2022-09-21T14:24:20.635Z,1.52
2022-09-21T14:27:10.701Z,0.80
2022-09-21T14:29:50.913Z,2.58
2022-09-21T14:32:48.650Z,2.67
2022-09-21T14:35:33.559Z,2.38
2022-09-21T14:38:34.652Z,3.15
2022-09-21T14:41:17.292Z,4.72
2022-09-21T14:44:02.651Z,2.45
2022-09-21T14:47:05.656Z,3.92
2022-09-21T14:49:54.604Z,2.92
2022-09-21T14:52:48.644Z,2.10
2022-09-21T14:55:48.780Z,1.67
2022-09-21T14:58:36.647Z,5.60
2022-09-21T15:01:23.030Z,3.83
2022-09-21T15:04:25.669Z,8.63
2022-09-21T15:07:21.161Z,9.75
2022-09-21T15:10:35.657Z,10.57
2022-09-21T15:13:16.632Z,6.63
2022-09-21T15:16:17.797Z,6.07
2022-09-21T15:18:58.655Z,32.60
2022-09-21T15:21:39.695Z,1.80
2022-09-21T15:24:26.662Z,4.72
2022-09-21T15:27:22.161Z,9.18
2022-09-21T15:30:03.670Z,10.63
2022-09-21T15:32:46.544Z,10.38
2022-09-21T15:35:35.672Z,4.00
2022-09-21T15:38:09.702Z,3.72
2022-09-21T15:41:02.756Z,8.23
2022-09-21T15:43:38.712Z,7.00
2022-09-21T15:46:26.810Z,18.88
2022-09-21T15:49:01.852Z,8.32
2022-09-21T15:51:52.649Z,19.85
2022-09-21T15:54:34.732Z,24.17
2022-09-21T15:57:31.823Z,50.15
2022-09-21T16:00:17.639Z,122.95
2022-09-21T16:03:11.661Z,72.07
2022-09-21T16:06:03.663Z,79.70
2022-09-21T16:08:42.739Z,30.30
2022-09-21T16:11:32.663Z,159.35
2022-09-21T16:14:28.425Z,136.88
2022-09-21T16:17:21.658Z,76.70
2022-09-21T16:19:59.022Z,61.95
2022-09-21T16:22:51.675Z,36.25
2022-09-21T16:25:40.054Z,13.93
2022-09-21T16:28:27.658Z,10.77
2022-09-21T16:31:30.049Z,7.32
2022-09-21T16:34:13.697Z,11.15
2022-09-21T16:37:05.659Z,7.65
2022-09-21T16:39:41.246Z,5.80
2022-09-21T16:42:28.659Z,6.07
2022-09-21T16:45:16.663Z,9.50
2022-09-21T16:47:57.774Z,8.40
2022-09-21T16:50:37.685Z,8.05
2022-09-21T16:53:26.709Z,5.88
2022-09-21T16:56:00.621Z,3.05
2022-09-21T16:58:49.648Z,2.47
2022-09-21T17:01:24.073Z,5.57
2022-09-21T17:04:11.664Z,4.07
2022-09-21T17:06:45.775Z,6.20
2022-09-21T17:09:48.680Z,7.35
2022-09-21T17:12:24.536Z,17.73
2022-09-21T17:15:14.695Z,11.38
2022-09-21T17:20:52.690Z,9.55
2022-09-21T17:23:46.793Z,6.68
2022-09-21T17:29:15.683Z,10.63
2022-09-21T17:32:05.647Z,19.20
2022-09-21T17:34:47.673Z,39.72
2022-09-21T17:37:41.731Z,21.00
2022-09-21T17:40:36.751Z,29.98
2022-09-21T17:43:29.680Z,41.10
2022-09-21T17:46:08.449Z,35.15
2022-09-21T17:48:56.847Z,87.72
2022-09-21T17:51:49.450Z,64.20
2022-09-21T17:54:36.730Z,41.00
2022-09-21T17:57:19.147Z,11.68
2022-09-21T18:00:33.822Z,13.70
2022-09-21T18:03:08.012Z,19.27
2022-09-21T18:05:57.735Z,39.72
2022-09-21T18:11:31.770Z,17.80
2022-09-21T18:14:31.758Z,17.67
2022-09-21T18:17:38.863Z,22.17
2022-09-21T18:20:28.884Z,13.80
2022-09-21T18:23:02.764Z,16.23
2022-09-21T18:25:54.687Z,13.63
2022-09-21T18:28:31.849Z,10.38
2022-09-21T18:31:36.799Z,9.32
2022-09-21T18:34:22.908Z,6.57
2022-09-21T18:37:16.693Z,11.73
2022-09-21T18:39:59.973Z,7.97
2022-09-21T18:42:51.764Z,7.97
2022-09-21T18:45:31.969Z,5.35
2022-09-21T18:48:19.705Z,6.00
2022-09-21T18:51:06.757Z,8.98
2022-09-21T18:54:07.709Z,10.50
2022-09-21T18:56:55.729Z,17.02
2022-09-21T18:59:32.103Z,13.25
2022-09-21T19:02:23.898Z,9.93
2022-09-21T19:04:58.441Z,6.15
2022-09-21T19:07:51.816Z,11.93
2022-09-21T19:10:35.416Z,8.85
2022-09-21T19:13:37.784Z,12.27
2022-09-21T19:16:20.817Z,7.95
2022-09-21T19:19:22.736Z,13.57
2022-09-21T19:22:05.863Z,8.40
2022-09-21T19:25:08.791Z,7.63
2022-09-21T19:27:53.824Z,7.40
2022-09-21T19:30:48.826Z,7.55
2022-09-21T19:33:50.001Z,5.70
2022-09-21T19:36:31.818Z,8.25
2022-09-21T19:39:12.700Z,8.73
2022-09-21T19:42:02.111Z,7.60
2022-09-21T19:44:42.711Z,5.60
2022-09-21T19:47:36.724Z,5.93
2022-09-21T19:50:26.072Z,7.15
2022-09-21T19:53:31.689Z,9.95
2022-09-21T19:56:28.000Z,7.55
2022-09-21T19:59:34.701Z,5.20
2022-09-21T20:02:32.629Z,4.50
2022-09-21T20:05:22.702Z,6.53
2022-09-21T20:08:05.594Z,8.60
2022-09-21T20:11:08.711Z,4.72
2022-09-21T20:14:00.950Z,8.70
2022-09-21T20:17:08.808Z,6.32
2022-09-21T20:19:47.869Z,7.43
2022-09-21T20:22:47.717Z,9.57
2022-09-21T20:25:27.027Z,5.57
2022-09-21T20:28:14.711Z,7.97
2022-09-21T20:30:55.792Z,5.25
2022-09-21T20:33:37.766Z,5.47
2022-09-21T20:36:17.718Z,7.35
2022-09-21T20:39:00.018Z,12.35
2022-09-21T20:41:39.721Z,6.32
2022-09-21T20:44:21.987Z,7.68
2022-09-21T20:47:01.693Z,8.63
2022-09-21T20:49:42.837Z,10.55
2022-09-21T20:52:24.696Z,9.95
2022-09-21T20:55:08.228Z,8.93
2022-09-21T20:57:48.714Z,10.70
2022-09-21T21:00:29.816Z,9.80
2022-09-21T21:03:10.702Z,13.02
2022-09-21T21:05:51.772Z,9.13
2022-09-21T21:08:31.716Z,6.35
2022-09-21T21:11:14.328Z,8.07
2022-09-21T21:13:54.726Z,6.45
2022-09-21T21:16:42.765Z,6.32
2022-09-21T21:19:23.709Z,6.25
2022-09-21T21:22:06.510Z,6.63
2022-09-21T21:24:47.702Z,14.18
2022-09-21T21:27:28.793Z,12.02
2022-09-21T21:30:08.715Z,6.65
2022-09-21T21:32:58.709Z,9.52
2022-09-21T21:35:32.710Z,11.68
2022-09-21T21:38:20.737Z,12.75
2022-09-21T21:41:14.721Z,7.80
2022-09-21T21:46:35.853Z,6.07
2022-09-21T21:49:22.713Z,11.15
2022-09-21T21:51:58.624Z,9.88
2022-09-21T21:54:45.729Z,8.45
2022-09-21T21:57:26.714Z,6.03
2022-09-21T22:00:21.712Z,6.03
2022-09-21T22:03:11.741Z,6.28
2022-09-21T22:05:45.878Z,7.05
2022-09-21T22:08:33.749Z,5.82
2022-09-21T22:11:14.698Z,8.73
2022-09-21T22:14:09.740Z,4.18
2022-09-21T22:16:57.715Z,4.70
2022-09-21T22:19:38.861Z,8.68
2022-09-21T22:22:25.721Z,4.03
2022-09-21T22:25:06.708Z,8.18
2022-09-21T22:28:00.716Z,4.20
2022-09-21T22:30:54.717Z,5.25
2022-09-21T22:33:35.732Z,9.73
2022-09-21T22:36:20.817Z,5.72
2022-09-21T22:39:08.745Z,9.25
2022-09-21T22:41:43.282Z,6.25
2022-09-21T22:44:30.721Z,4.60
2022-09-21T22:47:04.832Z,5.07
2022-09-21T22:49:52.739Z,6.85
2022-09-21T22:52:26.664Z,4.13
2022-09-21T22:55:14.730Z,5.70
2022-09-21T22:57:55.726Z,4.32
2022-09-21T23:00:36.921Z,7.57
2022-09-21T23:03:18.740Z,8.32
2022-09-21T23:06:02.812Z,7.45
2022-09-21T23:08:45.721Z,6.68
2022-09-21T23:11:30.814Z,8.95
2022-09-21T23:14:11.752Z,9.10
2022-09-21T23:16:53.210Z,4.50
2022-09-21T23:19:33.736Z,4.32
2022-09-21T23:22:14.811Z,4.43
2022-09-21T23:24:54.737Z,6.07
2022-09-21T23:27:35.953Z,4.68
2022-09-21T23:30:17.772Z,4.70
2022-09-21T23:32:58.890Z,3.03
2022-09-21T23:35:39.706Z,5.97
2022-09-21T23:38:27.736Z,3.50
2022-09-21T23:41:07.428Z,5.53
2022-09-21T23:43:55.761Z,6.05
2022-09-21T23:46:37.832Z,4.70
2022-09-21T23:49:18.968Z,3.33
2022-09-21T23:51:59.745Z,3.47
2022-09-21T23:54:40.788Z,5.05
2022-09-21T23:57:20.766Z,4.63
